Time;durP1;ratioP1;P1;durP2;ratioP2;P2;SDS_P1;SDS_P2;PMS_P1;PMS_P2;Temp;Humidity;BMP_temperature;BMP_pressure;BME280_temperature;BME280_humidity;BME280_pressure;Samples;Min_cycle;Max_cycle;Signal;HPM_P1;HPM_P2
2021/10/19 00:00:14;;;;;;;11.80;5.90;;;6.80;1.00;;;;;;5048760;28;20799;-74
2021/10/19 00:02:48;;;;;;;13.30;5.80;;;6.80;1.00;;;;;;5052796;28;20931;-74
2021/10/19 00:05:14;;;;;;;14.70;5.53;;;6.70;1.00;;;;;;5034796;28;20802;-74
2021/10/19 00:07:40;;;;;;;9.93;5.20;;;6.70;1.00;;;;;;5033689;28;20415;-74
2021/10/19 00:10:07;;;;;;;7.50;4.57;;;6.70;1.00;;;;;;5051615;28;20184;-74
2021/10/19 00:12:33;;;;;;;13.97;6.57;;;6.70;1.00;;;;;;5041275;28;20799;-74
2021/10/19 00:14:59;;;;;;;11.47;6.37;;;6.70;1.00;;;;;;5038610;28;20468;-75
2021/10/19 00:17:25;;;;;;;10.57;5.17;;;;;;;;;;5053217;28;20237;-74
2021/10/19 00:20:00;;;;;;;10.17;5.93;;;6.70;1.00;;;;;;5034013;28;20235;-74
2021/10/19 00:22:26;;;;;;;11.80;6.27;;;6.70;1.00;;;;;;5050649;28;20896;-74
2021/10/19 00:24:51;;;;;;;12.07;6.23;;;6.70;1.00;;;;;;5047482;28;20445;-74
2021/10/19 00:27:17;;;;;;;8.20;5.43;;;6.70;1.00;;;;;;5033203;28;20601;-74
2021/10/19 00:29:43;;;;;;;12.77;5.40;;;6.70;1.00;;;;;;5051868;28;20192;-74
2021/10/19 00:32:12;;;;;;;9.77;5.03;;;6.80;1.00;;;;;;5051481;28;20267;-77
2021/10/19 00:34:38;;;;;;;8.77;4.63;;;6.90;1.00;;;;;;5033824;28;20168;-76
2021/10/19 00:37:05;;;;;;;10.10;5.23;;;6.90;1.00;;;;;;5052630;28;20433;-76
2021/10/19 00:39:31;;;;;;;12.77;5.97;;;7.00;1.00;;;;;;5038707;28;21124;-76
2021/10/19 00:41:56;;;;;;;21.77;6.73;;;6.90;1.00;;;;;;5048875;28;20442;-76
2021/10/19 00:44:30;;;;;;;10.37;5.90;;;6.90;1.00;;;;;;5055354;28;20626;-76
2021/10/19 00:46:58;;;;;;;15.47;6.47;;;6.90;1.00;;;;;;5045025;28;20234;-75
2021/10/19 00:49:24;;;;;;;9.57;5.07;;;6.90;1.00;;;;;;5036568;28;20426;-74
2021/10/19 00:51:55;;;;;;;14.73;5.13;;;7.00;1.00;;;;;;5044040;28;20508;-74
2021/10/19 00:54:30;;;;;;;8.67;4.97;;;7.00;1.00;;;;;;5056457;28;20417;-74
2021/10/19 00:57:07;;;;;;;11.27;6.10;;;7.00;1.00;;;;;;5050545;28;20421;-74
2021/10/19 00:59:36;;;;;;;8.03;4.90;;;7.20;1.00;;;;;;5039175;28;20484;-74
2021/10/19 01:02:06;;;;;;;10.40;5.50;;;7.10;1.00;;;;;;5051756;28;20417;-74
2021/10/19 01:04:32;;;;;;;9.10;5.53;;;7.20;1.00;;;;;;5056379;28;20885;-75
2021/10/19 01:06:58;;;;;;;11.27;5.60;;;;;;;;;;5054372;28;20505;-74
2021/10/19 01:09:24;;;;;;;11.00;6.00;;;;;;;;;;5056223;28;20213;-74
2021/10/19 01:11:55;;;;;;;10.37;5.80;;;7.30;1.00;;;;;;5039608;28;20456;-75
2021/10/19 01:14:24;;;;;;;12.87;6.10;;;7.30;1.00;;;;;;5056069;28;20846;-75
2021/10/19 01:16:50;;;;;;;15.63;5.63;;;7.30;1.00;;;;;;5036575;28;20395;-75
2021/10/19 01:19:23;;;;;;;16.00;6.60;;;7.40;1.00;;;;;;5049448;28;20780;-74
2021/10/19 01:21:57;;;;;;;11.80;5.90;;;7.40;1.00;;;;;;5038841;28;20180;-75
2021/10/19 01:24:24;;;;;;;16.53;5.73;;;7.40;1.00;;;;;;5050998;28;21023;-75
2021/10/19 01:26:54;;;;;;;15.20;6.53;;;7.50;1.00;;;;;;5055807;28;20414;-74
2021/10/19 01:29:24;;;;;;;14.57;5.47;;;7.50;1.00;;;;;;5041262;28;20934;-74
2021/10/19 01:31:55;;;;;;;10.80;5.80;;;7.50;1.00;;;;;;5056261;28;20425;-77
2021/10/19 01:34:21;;;;;;;9.70;5.80;;;7.50;1.00;;;;;;5055193;28;20465;-76
2021/10/19 01:36:47;;;;;;;8.13;5.30;;;7.50;1.00;;;;;;5051894;28;20498;-76
2021/10/19 01:39:13;;;;;;;8.17;5.03;;;;;;;;;;5039430;28;20468;-75
2021/10/19 01:41:41;;;;;;;10.30;5.90;;;7.50;1.00;;;;;;5045696;28;20443;-76
2021/10/19 01:44:42;;;;;;;9.80;6.17;;;7.50;1.00;;;;;;5037840;28;20480;-76
2021/10/19 01:47:08;;;;;;;10.10;5.33;;;7.60;1.00;;;;;;5051354;28;20485;-74
2021/10/19 01:49:34;;;;;;;10.57;6.10;;;;;;;;;;5045059;28;20897;-74
2021/10/19 01:51:59;;;;;;;8.60;5.77;;;7.70;1.00;;;;;;5042145;28;20187;-74
2021/10/19 01:54:30;;;;;;;11.43;5.93;;;7.70;1.00;;;;;;5055206;28;20414;-75
2021/10/19 01:56:56;;;;;;;9.17;5.80;;;7.70;1.00;;;;;;5041853;28;20635;-74
2021/10/19 01:59:30;;;;;;;14.10;6.50;;;7.70;1.00;;;;;;5051199;28;20466;-75
2021/10/19 02:02:00;;;;;;;16.27;6.47;;;7.70;1.00;;;;;;5054832;28;20694;-74
2021/10/19 02:04:30;;;;;;;14.87;6.83;;;7.80;1.00;;;;;;5054924;28;20414;-75
2021/10/19 02:06:56;;;;;;;14.73;6.60;;;7.80;1.00;;;;;;5046395;28;20433;-74
2021/10/19 02:09:21;;;;;;;13.43;6.87;;;7.70;1.00;;;;;;5055316;28;20406;-75
2021/10/19 02:11:47;;;;;;;9.23;6.50;;;7.80;1.00;;;;;;5050076;28;20271;-74
2021/10/19 02:14:13;;;;;;;10.57;6.17;;;;;;;;;;5035154;28;20207;-75
2021/10/19 02:16:48;;;;;;;13.97;6.30;;;7.80;1.00;;;;;;5054008;28;20172;-76
2021/10/19 02:19:26;;;;;;;8.97;5.97;;;7.90;1.00;;;;;;5042191;28;20458;-77
2021/10/19 02:21:56;;;;;;;15.30;6.90;;;7.90;1.00;;;;;;5046245;28;20476;-76
2021/10/19 02:24:30;;;;;;;19.33;6.90;;;7.90;1.00;;;;;;5040439;28;20430;-76
2021/10/19 02:26:56;;;;;;;14.13;6.60;;;7.90;1.00;;;;;;5045471;28;20464;-76
2021/10/19 02:29:30;;;;;;;10.23;6.07;;;8.00;1.00;;;;;;5048452;28;20770;-76
2021/10/19 02:31:56;;;;;;;12.23;5.60;;;8.00;1.00;;;;;;5037510;28;20930;-76
2021/10/19 02:34:22;;;;;;;11.77;6.00;;;8.00;1.00;;;;;;5034927;28;20465;-77
2021/10/19 02:36:49;;;;;;;10.83;6.73;;;8.00;1.00;;;;;;5056557;28;20187;-76
2021/10/19 02:39:19;;;;;;;14.40;6.60;;;8.10;1.00;;;;;;5046500;28;20465;-76
2021/10/19 02:41:48;;;;;;;13.80;5.53;;;8.10;1.00;;;;;;5033109;28;20447;-76
2021/10/19 02:44:19;;;;;;;10.67;6.53;;;8.20;1.00;;;;;;5052955;28;20533;-76
2021/10/19 02:46:44;;;;;;;16.13;7.27;;;8.20;1.00;;;;;;5054805;28;20449;-75
2021/10/19 02:49:13;;;;;;;16.33;6.57;;;8.20;1.00;;;;;;5058895;28;20975;-74
2021/10/19 02:51:39;;;;;;;10.90;5.60;;;8.10;1.00;;;;;;5045699;28;20188;-74
2021/10/19 02:54:12;;;;;;;15.13;7.23;;;8.10;1.00;;;;;;5054508;28;20444;-74
2021/10/19 02:56:42;;;;;;;19.27;7.00;;;8.20;1.00;;;;;;5041024;28;20442;-75
2021/10/19 02:59:12;;;;;;;12.30;6.97;;;8.20;1.00;;;;;;5045580;28;20996;-74
2021/10/19 03:01:42;;;;;;;13.47;6.93;;;8.30;1.00;;;;;;5043377;28;20419;-76
2021/10/19 03:04:18;;;;;;;23.20;7.50;;;8.30;1.00;;;;;;5040297;28;20422;-76
2021/10/19 03:06:44;;;;;;;14.10;6.90;;;8.40;1.00;;;;;;5047642;28;20419;-76
2021/10/19 03:09:18;;;;;;;14.73;7.70;;;8.40;1.00;;;;;;5036374;28;20414;-77
2021/10/19 03:11:44;;;;;;;11.37;6.67;;;8.40;1.00;;;;;;5049648;28;20428;-77
2021/10/19 03:14:11;;;;;;;15.10;7.50;;;8.50;1.00;;;;;;5040893;28;20422;-77
2021/10/19 03:16:37;;;;;;;15.90;6.40;;;;;;;;;;5050332;28;20175;-75
2021/10/19 03:19:06;;;;;;;22.10;7.80;;;8.50;1.00;;;;;;5039424;28;20848;-74
2021/10/19 03:21:36;;;;;;;13.30;6.13;;;8.50;1.00;;;;;;5041822;28;20418;-74
2021/10/19 03:24:04;;;;;;;13.60;7.70;;;8.50;1.00;;;;;;5053901;28;20453;-74
2021/10/19 03:26:30;;;;;;;14.60;7.87;;;8.60;1.00;;;;;;5053151;28;20410;-75
2021/10/19 03:29:07;;;;;;;13.50;7.40;;;8.60;1.00;;;;;;5033802;28;20430;-74
2021/10/19 03:31:36;;;;;;;19.93;9.27;;;8.70;1.00;;;;;;5043119;28;20784;-75
2021/10/19 03:34:03;;;;;;;15.87;9.53;;;8.70;1.00;;;;;;5038242;28;20411;-74
2021/10/19 03:36:31;;;;;;;16.80;8.37;;;8.80;1.00;;;;;;5065323;28;20884;-74
2021/10/19 03:39:01;;;;;;;17.83;9.57;;;8.80;1.00;;;;;;5071697;28;20777;-74
2021/10/19 03:41:26;;;;;;;15.90;8.50;;;8.80;1.00;;;;;;5056683;28;20467;-74
2021/10/19 03:43:52;;;;;;;22.13;8.87;;;8.80;1.00;;;;;;5070860;28;20889;-75
2021/10/19 03:46:18;;;;;;;20.60;10.00;;;8.90;1.00;;;;;;5039893;28;20269;-74
2021/10/19 03:48:44;;;;;;;18.53;8.60;;;;;;;;;;5034142;28;20169;-74
2021/10/19 03:51:10;;;;;;;21.70;8.57;;;9.00;1.00;;;;;;5050953;28;20650;-74
2021/10/19 03:53:37;;;;;;;23.40;10.30;;;9.00;1.00;;;;;;5048407;28;20414;-75
2021/10/19 03:56:04;;;;;;;15.77;9.13;;;9.10;1.00;;;;;;5033798;28;20259;-75
2021/10/19 03:58:29;;;;;;;18.20;9.27;;;9.10;1.00;;;;;;5049622;28;20545;-75
2021/10/19 04:01:06;;;;;;;16.97;9.50;;;9.10;1.00;;;;;;5053136;28;20846;-75
2021/10/19 04:03:36;;;;;;;31.90;10.00;;;9.10;1.00;;;;;;5049463;28;20183;-75
2021/10/19 04:06:02;;;;;;;17.97;10.03;;;9.20;1.00;;;;;;5033238;28;20419;-75
2021/10/19 04:08:28;;;;;;;23.53;10.67;;;9.20;1.00;;;;;;5051264;28;20436;-74
2021/10/19 04:10:54;;;;;;;19.07;9.50;;;;;;;;;;5044750;28;20210;-75
2021/10/19 04:13:20;;;;;;;22.83;8.40;;;9.30;1.00;;;;;;5043718;28;20270;-75
2021/10/19 04:15:45;;;;;;;18.13;8.93;;;9.30;1.00;;;;;;5053004;28;20612;-75
2021/10/19 04:18:12;;;;;;;17.70;9.13;;;9.30;1.00;;;;;;5047783;28;20235;-79
2021/10/19 04:20:43;;;;;;;22.60;11.20;;;9.30;1.00;;;;;;5052738;28;20176;-78
2021/10/19 04:23:12;;;;;;;20.67;10.70;;;9.30;1.00;;;;;;5046052;28;20414;-77
2021/10/19 04:25:39;;;;;;;27.30;11.30;;;9.30;1.00;;;;;;5053349;28;20525;-77
2021/10/19 04:28:05;;;;;;;21.37;11.20;;;9.30;1.00;;;;;;5037385;28;20421;-77
2021/10/19 04:30:45;;;;;;;18.67;10.60;;;9.30;1.00;;;;;;5037732;28;20391;-77
2021/10/19 04:33:10;;;;;;;15.70;9.40;;;9.40;1.00;;;;;;5037669;28;20920;-76
2021/10/19 04:35:36;;;;;;;26.67;11.30;;;9.40;1.00;;;;;;5056721;28;20413;-77
2021/10/19 04:38:13;;;;;;;23.60;12.30;;;9.40;1.00;;;;;;5047117;28;20534;-76
2021/10/19 04:40:38;;;;;;;21.27;11.30;;;9.30;1.00;;;;;;5055045;28;20518;-77
2021/10/19 04:43:07;;;;;;;29.37;12.60;;;9.30;1.00;;;;;;5047549;28;20921;-76
2021/10/19 04:45:42;;;;;;;27.93;11.90;;;9.30;1.00;;;;;;5044653;28;20298;-76
2021/10/19 04:48:14;;;;;;;27.20;12.03;;;9.30;1.00;;;;;;5068473;28;20915;-76
2021/10/19 04:50:43;;;;;;;33.00;12.80;;;9.30;1.00;;;;;;5054247;28;20414;-76
2021/10/19 04:53:24;;;;;;;23.17;12.93;;;9.30;1.00;;;;;;5056660;28;20433;-76
2021/10/19 04:55:50;;;;;;;27.13;11.50;;;9.30;1.00;;;;;;5056383;28;20917;-76
2021/10/19 04:58:19;;;;;;;25.50;13.10;;;9.20;1.00;;;;;;5056451;28;20414;-76
2021/10/19 05:00:49;;;;;;;23.93;11.73;;;9.30;1.00;;;;;;5056725;28;20160;-77
2021/10/19 05:03:17;;;;;;;19.50;10.23;;;9.30;1.00;;;;;;5056712;28;20414;-78
2021/10/19 05:05:50;;;;;;;20.03;10.70;;;9.30;1.00;;;;;;5047383;28;20415;-78
2021/10/19 05:08:36;;;;;;;26.67;12.37;;;9.30;1.00;;;;;;5036612;28;20415;-78
2021/10/19 05:11:07;;;;;;;24.20;11.90;;;9.30;1.00;;;;;;5036273;28;20422;-76
2021/10/19 05:13:37;;;;;;;23.10;11.87;;;9.30;1.00;;;;;;5046278;28;20425;-77
2021/10/19 05:16:07;;;;;;;27.23;12.40;;;9.30;1.00;;;;;;5042700;28;20403;-76
2021/10/19 05:18:33;;;;;;;25.90;12.00;;;9.30;1.00;;;;;;5044498;28;20607;-76
2021/10/19 05:21:01;;;;;;;23.57;12.10;;;9.30;1.00;;;;;;5051062;28;20813;-76
2021/10/19 05:23:27;;;;;;;25.17;12.07;;;9.30;1.00;;;;;;5034974;28;20259;-76
2021/10/19 05:25:52;;;;;;;27.60;11.63;;;9.40;1.00;;;;;;5043667;28;20438;-77
2021/10/19 05:28:19;;;;;;;25.73;11.20;;;9.40;1.00;;;;;;5048348;28;20407;-76
2021/10/19 05:30:44;;;;;;;22.10;11.57;;;9.50;1.00;;;;;;5050406;28;20650;-76
2021/10/19 05:33:10;;;;;;;25.47;12.40;;;9.50;1.00;;;;;;5059401;28;20414;-77
2021/10/19 05:35:36;;;;;;;23.20;12.73;;;9.50;1.00;;;;;;5043608;28;20200;-77
2021/10/19 05:38:06;;;;;;;33.33;13.80;;;9.50;1.00;;;;;;5045913;28;20446;-76
2021/10/19 05:40:37;;;;;;;27.03;12.40;;;9.50;1.00;;;;;;5049676;28;20434;-76
2021/10/19 05:43:06;;;;;;;20.93;11.00;;;9.50;1.00;;;;;;5050618;28;20430;-76
2021/10/19 05:45:37;;;;;;;21.20;10.90;;;9.60;1.00;;;;;;5046984;28;20917;-77
2021/10/19 05:48:18;;;;;;;30.10;11.50;;;9.60;1.00;;;;;;5045453;28;20765;-76
2021/10/19 05:50:45;;;;;;;19.00;10.30;;;9.60;1.00;;;;;;5045909;28;20454;-76
2021/10/19 05:53:11;;;;;;;16.83;9.87;;;9.60;1.00;;;;;;5038155;28;20937;-76
2021/10/19 05:55:43;;;;;;;20.00;10.77;;;9.60;1.00;;;;;;5056047;28;20410;-76
2021/10/19 05:58:08;;;;;;;18.87;9.93;;;9.60;1.00;;;;;;5055184;28;20414;-76
2021/10/19 06:00:34;;;;;;;21.43;10.40;;;9.60;1.00;;;;;;5048601;28;20808;-76
2021/10/19 06:03:00;;;;;;;23.00;9.90;;;9.50;1.00;;;;;;5045191;28;20205;-76
2021/10/19 06:05:48;;;;;;;18.13;9.27;;;9.50;1.00;;;;;;5040488;28;20180;-76
2021/10/19 06:08:14;;;;;;;17.97;9.80;;;9.50;1.00;;;;;;5042119;28;20501;-76
2021/10/19 06:10:43;;;;;;;20.33;9.77;;;9.50;1.00;;;;;;5045931;28;20514;-76
2021/10/19 06:13:09;;;;;;;18.97;9.17;;;;;;;;;;5052450;28;20179;-76
2021/10/19 06:15:46;;;;;;;25.00;12.33;;;9.50;1.00;;;;;;5045121;28;20505;-76
2021/10/19 06:18:12;;;;;;;16.07;8.70;;;9.50;1.00;;;;;;5043532;28;20441;-75
2021/10/19 06:20:38;;;;;;;27.87;10.80;;;9.60;1.00;;;;;;5048737;28;20433;-75
2021/10/19 06:23:04;;;;;;;19.70;10.87;;;9.70;1.00;;;;;;5049830;28;20426;-75
2021/10/19 06:25:30;;;;;;;19.57;8.90;;;;;;;;;;5052888;28;20182;-75
2021/10/19 06:27:55;;;;;;;21.20;8.97;;;9.70;1.00;;;;;;5045147;28;20566;-75
2021/10/19 06:30:22;;;;;;;15.77;8.07;;;;;;;;;;5053116;28;20410;-75
2021/10/19 06:32:47;;;;;;;21.80;10.00;;;9.70;1.00;;;;;;5051975;28;20182;-75
2021/10/19 06:35:13;;;;;;;19.20;9.53;;;;;;;;;;5047774;28;20900;-75
2021/10/19 06:37:39;;;;;;;17.77;9.10;;;9.60;1.00;;;;;;5040746;28;20180;-75
2021/10/19 06:40:06;;;;;;;19.73;9.40;;;9.70;1.00;;;;;;5043554;28;20791;-75
2021/10/19 06:42:32;;;;;;;20.07;10.03;;;9.70;1.00;;;;;;5052294;28;20434;-75
2021/10/19 06:45:01;;;;;;;21.50;10.00;;;;;;;;;;5053328;28;21007;-75
2021/10/19 06:47:29;;;;;;;24.27;10.07;;;9.80;1.00;;;;;;5053287;28;20906;-75
2021/10/19 06:49:55;;;;;;;14.23;8.70;;;9.80;1.00;;;;;;5052184;28;20418;-75
2021/10/19 06:52:21;;;;;;;14.93;8.77;;;9.80;1.00;;;;;;5053268;28;20410;-75
2021/10/19 06:54:47;;;;;;;16.10;9.37;;;;;;;;;;5053070;28;20417;-75
2021/10/19 06:57:13;;;;;;;17.37;9.63;;;;;;;;;;5051520;28;20180;-75
2021/10/19 06:59:38;;;;;;;21.60;9.60;;;9.90;1.00;;;;;;5053156;28;20461;-75
2021/10/19 07:02:05;;;;;;;16.27;8.93;;;;;;;;;;5045978;28;20434;-75
2021/10/19 07:04:30;;;;;;;16.43;9.10;;;10.00;1.00;;;;;;5046531;28;20682;-75
2021/10/19 07:06:56;;;;;;;16.97;10.13;;;10.00;1.00;;;;;;5049670;28;20526;-76
2021/10/19 07:09:22;;;;;;;24.63;9.37;;;10.00;1.00;;;;;;5034985;28;20203;-76
2021/10/19 07:11:48;;;;;;;24.17;10.17;;;10.10;1.00;;;;;;5044471;28;20495;-76
2021/10/19 07:14:14;;;;;;;19.90;9.43;;;;;;;;;;5031747;28;20349;-77
2021/10/19 07:16:39;;;;;;;14.07;8.70;;;10.20;1.00;;;;;;5040756;28;20179;-76
2021/10/19 07:19:09;;;;;;;23.03;10.73;;;;;;;;;;5050270;28;20853;-76
2021/10/19 07:21:37;;;;;;;19.50;10.13;;;10.30;1.00;;;;;;5045502;28;20189;-76
2021/10/19 07:24:04;;;;;;;14.90;8.37;;;10.30;1.00;;;;;;5034349;28;20427;-76
2021/10/19 07:26:29;;;;;;;17.23;9.87;;;10.30;1.00;;;;;;5047229;28;20417;-75
2021/10/19 07:28:55;;;;;;;15.53;8.13;;;10.40;1.00;;;;;;5042775;28;20939;-75
2021/10/19 07:31:20;;;;;;;15.23;8.67;;;10.40;1.00;;;;;;5046437;28;20280;-75
2021/10/19 07:33:49;;;;;;;17.10;8.90;;;10.40;1.00;;;;;;5033182;28;20695;-75
2021/10/19 07:36:15;;;;;;;14.07;7.90;;;10.50;1.00;;;;;;5047272;28;20214;-75
2021/10/19 07:38:41;;;;;;;18.33;8.40;;;10.60;1.00;;;;;;5040724;28;20528;-75
2021/10/19 07:41:06;;;;;;;15.63;8.00;;;10.70;1.00;;;;;;5052159;28;20438;-75
2021/10/19 07:43:32;;;;;;;15.67;8.43;;;10.60;1.00;;;;;;5049201;28;20206;-75
2021/10/19 07:45:58;;;;;;;14.43;8.20;;;10.70;1.00;;;;;;5051713;28;20206;-75
2021/10/19 07:48:24;;;;;;;14.67;7.87;;;10.70;1.00;;;;;;5052349;28;20255;-75
2021/10/19 07:50:49;;;;;;;14.43;7.53;;;10.70;1.00;;;;;;5052728;28;20166;-75
2021/10/19 07:53:16;;;;;;;15.17;7.30;;;10.70;1.00;;;;;;5048159;28;20413;-75
2021/10/19 07:55:43;;;;;;;10.77;6.60;;;10.80;1.00;;;;;;5052279;28;20452;-75
2021/10/19 07:58:09;;;;;;;10.70;7.10;;;11.00;1.00;;;;;;5050754;28;20419;-75
2021/10/19 08:00:37;;;;;;;10.23;6.20;;;10.90;1.00;;;;;;5039822;28;20454;-76
2021/10/19 08:03:03;;;;;;;10.90;6.70;;;10.90;1.00;;;;;;5051592;28;20417;-75
2021/10/19 08:05:29;;;;;;;16.10;8.27;;;11.00;1.00;;;;;;5052606;28;20418;-75
2021/10/19 08:08:13;;;;;;;16.10;7.93;;;11.00;1.00;;;;;;5037760;28;20418;-75
2021/10/19 08:10:41;;;;;;;11.57;6.70;;;11.10;1.00;;;;;;5038426;28;20418;-75
2021/10/19 08:13:09;;;;;;;10.30;5.93;;;11.10;1.00;;;;;;5052306;28;20414;-75
2021/10/19 08:15:36;;;;;;;9.33;5.87;;;11.10;1.00;;;;;;5052243;28;20418;-75
2021/10/19 08:18:03;;;;;;;15.83;6.23;;;11.20;1.00;;;;;;5042826;28;20500;-75
2021/10/19 08:20:29;;;;;;;10.17;5.90;;;11.60;1.00;;;;;;5043296;28;20964;-75
2021/10/19 08:22:54;;;;;;;13.10;6.80;;;11.60;1.00;;;;;;5042730;28;20442;-75
2021/10/19 08:25:20;;;;;;;8.00;5.87;;;11.40;1.00;;;;;;5052148;28;20471;-74
2021/10/19 08:27:46;;;;;;;8.77;5.73;;;11.40;1.00;;;;;;5050938;28;20253;-74
2021/10/19 08:30:15;;;;;;;12.13;5.73;;;11.70;1.00;;;;;;5052117;28;20183;-75
2021/10/19 08:32:41;;;;;;;8.07;5.57;;;11.50;1.00;;;;;;5052048;28;20743;-75
2021/10/19 08:35:07;;;;;;;5.47;4.70;;;11.60;1.00;;;;;;5052266;28;20406;-75
2021/10/19 08:37:33;;;;;;;7.37;4.93;;;12.60;1.00;;;;;;5051630;28;20434;-75
2021/10/19 08:39:59;;;;;;;7.23;5.07;;;11.70;1.00;;;;;;5052036;28;20465;-75
2021/10/19 08:42:26;;;;;;;8.73;5.30;;;11.70;1.00;;;;;;5051724;28;20210;-76
2021/10/19 08:44:51;;;;;;;7.97;5.00;;;11.70;1.00;;;;;;5050847;28;20418;-76
2021/10/19 08:47:17;;;;;;;5.70;4.40;;;11.70;1.00;;;;;;5052039;28;20772;-76
2021/10/19 08:49:43;;;;;;;19.17;5.20;;;11.80;1.00;;;;;;5051195;28;20198;-75
2021/10/19 08:52:09;;;;;;;5.60;3.93;;;11.90;1.00;;;;;;5051823;28;20414;-75
2021/10/19 08:54:36;;;;;;;4.53;3.77;;;11.90;1.00;;;;;;5051894;28;20179;-76
2021/10/19 08:57:02;;;;;;;4.40;3.87;;;11.90;1.00;;;;;;5051841;28;20418;-76
2021/10/19 08:59:28;;;;;;;7.17;4.77;;;11.90;1.00;;;;;;5055438;28;20445;-76
2021/10/19 09:01:56;;;;;;;3.83;3.47;;;12.00;1.00;;;;;;5054168;28;20491;-75
2021/10/19 09:04:29;;;;;;;4.80;3.10;;;11.90;1.00;;;;;;5055477;28;20456;-75
2021/10/19 09:06:56;;;;;;;5.80;3.97;;;11.90;1.00;;;;;;5055438;28;20439;-77
2021/10/19 09:09:24;;;;;;;4.57;3.50;;;11.80;1.00;;;;;;5043490;28;20480;-77
2021/10/19 09:11:52;;;;;;;5.80;3.53;;;11.80;1.00;;;;;;5040739;28;20414;-79
2021/10/19 09:14:21;;;;;;;3.03;2.80;;;11.80;1.00;;;;;;5055282;28;20425;-77
2021/10/19 09:16:49;;;;;;;3.90;2.97;;;11.80;1.00;;;;;;5041963;28;20418;-77
2021/10/19 09:19:18;;;;;;;4.67;3.80;;;11.80;1.00;;;;;;5040565;28;20454;-77
2021/10/19 09:22:08;;;;;;;5.80;3.90;;;11.80;1.00;;;;;;5039915;28;20420;-76
2021/10/19 09:24:38;;;;;;;3.87;3.30;;;11.80;1.00;;;;;;5050792;28;20419;-76
2021/10/19 09:27:06;;;;;;;5.83;4.20;;;11.90;1.00;;;;;;5054140;28;20410;-76
2021/10/19 09:29:51;;;;;;;5.87;3.83;;;12.00;1.00;;;;;;5041232;28;20444;-76
2021/10/19 09:32:18;;;;;;;5.93;3.70;;;12.00;1.00;;;;;;5047436;28;20432;-75
2021/10/19 09:34:48;;;;;;;5.80;3.90;;;12.00;1.00;;;;;;5042550;28;20414;-75
2021/10/19 09:37:21;;;;;;;6.83;4.00;;;12.10;1.00;;;;;;5037456;28;20423;-77
2021/10/19 09:39:50;;;;;;;6.20;4.13;;;12.10;1.00;;;;;;5047661;28;20475;-77
2021/10/19 09:42:27;;;;;;;3.80;3.10;;;12.10;1.00;;;;;;5047528;28;20437;-77
2021/10/19 09:44:58;;;;;;;4.43;3.53;;;12.20;1.00;;;;;;5044799;28;20406;-77
2021/10/19 09:47:29;;;;;;;7.77;3.67;;;12.30;1.00;;;;;;5054325;28;20428;-77
2021/10/19 09:50:01;;;;;;;5.23;4.60;;;12.30;1.00;;;;;;5062770;28;20551;-77
2021/10/19 09:52:29;;;;;;;7.23;4.80;;;12.30;1.00;;;;;;5050820;28;20418;-75
2021/10/19 09:54:54;;;;;;;8.50;4.93;;;12.40;1.00;;;;;;5048689;28;20453;-75
2021/10/19 09:57:20;;;;;;;5.83;4.50;;;12.40;1.00;;;;;;5055190;28;20422;-76
2021/10/19 09:59:49;;;;;;;7.10;4.73;;;12.40;1.00;;;;;;5041926;28;20549;-76
2021/10/19 10:02:15;;;;;;;5.93;4.57;;;12.50;1.00;;;;;;5048058;28;20840;-76
2021/10/19 10:04:42;;;;;;;8.60;5.00;;;12.60;1.00;;;;;;5034533;28;20473;-75
2021/10/19 10:07:21;;;;;;;7.37;5.27;;;12.70;1.00;;;;;;5052159;28;20418;-78
2021/10/19 10:09:48;;;;;;;5.83;4.90;;;12.80;1.00;;;;;;5034714;28;20399;-78
2021/10/19 10:12:14;;;;;;;7.63;5.47;;;12.80;1.00;;;;;;5043192;28;20504;-78
2021/10/19 10:14:44;;;;;;;6.70;4.97;;;12.80;1.00;;;;;;5053046;28;20430;-77
2021/10/19 10:17:10;;;;;;;6.77;4.73;;;12.80;1.00;;;;;;5055036;28;20497;-76
2021/10/19 10:19:37;;;;;;;9.60;5.70;;;12.80;1.00;;;;;;5054901;28;20479;-77
2021/10/19 10:22:14;;;;;;;10.67;5.83;;;12.90;1.00;;;;;;5054978;28;20402;-75
2021/10/19 10:24:49;;;;;;;8.87;5.83;;;12.80;1.00;;;;;;5054824;28;20418;-76
2021/10/19 10:27:25;;;;;;;10.17;5.97;;;12.80;1.00;;;;;;5047393;28;20400;-75
2021/10/19 10:29:50;;;;;;;9.67;6.60;;;12.90;1.00;;;;;;5042888;28;20461;-75
2021/10/19 10:32:37;;;;;;;12.47;7.33;;;12.90;1.00;;;;;;5047725;28;20986;-76
2021/10/19 10:35:09;;;;;;;10.53;6.63;;;12.90;1.00;;;;;;5037382;28;20413;-76
2021/10/19 10:37:51;;;;;;;9.07;5.90;;;13.00;1.00;;;;;;5045714;28;20836;-75
2021/10/19 10:40:34;;;;;;;10.80;7.13;;;13.00;1.00;;;;;;5054331;28;20951;-75
2021/10/19 10:43:23;;;;;;;10.77;7.17;;;13.00;1.00;;;;;;5047825;28;20441;-75
2021/10/19 10:46:11;;;;;;;13.17;8.30;;;13.10;1.00;;;;;;5046738;28;20509;-75
2021/10/19 10:48:43;;;;;;;14.70;8.50;;;13.10;1.00;;;;;;5066866;28;20448;-75
2021/10/19 10:51:40;;;;;;;13.20;7.80;;;13.10;1.00;;;;;;5039146;28;20427;-76
2021/10/19 10:54:14;;;;;;;13.33;8.80;;;13.10;1.00;;;;;;4967586;28;20838;-77
2021/10/19 10:56:49;;;;;;;16.67;9.53;;;13.10;1.00;;;;;;4987055;28;20926;-76
2021/10/19 10:59:36;;;;;;;16.80;9.50;;;13.20;1.00;;;;;;4992470;28;20495;-77
2021/10/19 11:02:09;;;;;;;16.97;10.70;;;13.20;1.00;;;;;;4991381;28;20433;-77
2021/10/19 11:04:49;;;;;;;18.97;10.97;;;13.20;1.00;;;;;;4977893;28;20557;-77
2021/10/19 11:07:35;;;;;;;19.90;11.60;;;13.30;1.00;;;;;;4974764;28;20437;-76
2021/10/19 11:10:15;;;;;;;17.67;10.67;;;13.40;1.00;;;;;;4992682;28;21007;-75
2021/10/19 11:12:42;;;;;;;19.13;11.20;;;13.50;1.00;;;;;;4976169;28;20436;-75
2021/10/19 11:15:18;;;;;;;19.47;11.07;;;13.50;1.00;;;;;;4992541;28;20516;-75
2021/10/19 11:17:48;;;;;;;19.43;10.77;;;13.70;1.00;;;;;;4990956;28;20437;-75
2021/10/19 11:20:21;;;;;;;17.33;10.53;;;13.70;1.00;;;;;;4992558;28;20563;-75
2021/10/19 11:22:48;;;;;;;22.73;11.43;;;13.70;1.00;;;;;;4983843;28;20432;-77
2021/10/19 11:25:14;;;;;;;18.83;11.63;;;;;;;;;;4980569;28;20905;-77
2021/10/19 11:27:42;;;;;;;27.30;11.43;;;13.80;1.00;;;;;;4964606;28;20923;-77
2021/10/19 11:30:10;;;;;;;19.23;10.80;;;13.90;1.00;;;;;;4998643;28;20997;-77
2021/10/19 11:32:36;;;;;;;17.00;9.70;;;13.80;1.00;;;;;;5042567;28;20793;-77
2021/10/19 11:35:04;;;;;;;16.77;10.90;;;13.80;1.00;;;;;;5051346;28;20430;-77
2021/10/19 11:37:30;;;;;;;16.60;10.67;;;;;;;;;;5045201;28;20438;-75
2021/10/19 11:40:09;;;;;;;14.73;9.80;;;13.80;1.00;;;;;;5047336;28;20460;-75
2021/10/19 11:42:44;;;;;;;14.97;9.90;;;13.80;1.00;;;;;;5047495;28;20523;-75
2021/10/19 11:45:11;;;;;;;19.60;9.90;;;;;;;;;;5052704;28;20495;-75
2021/10/19 11:47:52;;;;;;;18.67;10.47;;;13.90;1.00;;;;;;5036923;28;20405;-76
2021/10/19 11:50:23;;;;;;;16.00;10.80;;;13.90;1.00;;;;;;5048315;28;20410;-76
2021/10/19 11:52:50;;;;;;;22.20;10.60;;;13.80;1.00;;;;;;5044847;28;20852;-77
2021/10/19 11:55:18;;;;;;;15.53;9.90;;;13.80;1.00;;;;;;5048184;28;20505;-77
2021/10/19 11:57:51;;;;;;;17.90;10.93;;;13.80;1.00;;;;;;5033556;28;20510;-77
2021/10/19 12:00:19;;;;;;;16.43;9.73;;;13.90;1.00;;;;;;5038260;28;20458;-77
2021/10/19 12:02:57;;;;;;;18.43;10.00;;;13.90;1.00;;;;;;5041913;28;20432;-77
2021/10/19 12:05:25;;;;;;;20.00;11.83;;;13.90;1.00;;;;;;5044609;28;20438;-77
2021/10/19 12:07:54;;;;;;;16.83;9.93;;;13.90;1.00;;;;;;5032770;28;20426;-76
2021/10/19 12:10:37;;;;;;;19.00;10.07;;;13.90;1.00;;;;;;5036890;28;20934;-76
2021/10/19 12:13:11;;;;;;;19.50;10.17;;;;;;;;;;5038944;28;20418;-77
2021/10/19 12:15:38;;;;;;;21.47;10.57;;;14.10;1.00;;;;;;5038469;28;20430;-77
2021/10/19 12:18:17;;;;;;;13.60;9.00;;;14.10;1.00;;;;;;5040612;28;20437;-77
2021/10/19 12:20:45;;;;;;;18.20;10.60;;;14.10;1.00;;;;;;5051016;28;20848;-78
2021/10/19 12:23:12;;;;;;;22.53;10.77;;;14.20;1.00;;;;;;5037807;28;20484;-77
2021/10/19 12:25:43;;;;;;;17.33;9.70;;;14.20;1.00;;;;;;5052280;28;20446;-77
2021/10/19 12:28:17;;;;;;;15.90;10.20;;;14.20;1.00;;;;;;5043237;28;20833;-77
2021/10/19 12:30:43;;;;;;;20.37;10.13;;;;;;;;;;5045800;28;20973;-77
2021/10/19 12:33:16;;;;;;;16.13;9.80;;;14.30;1.00;;;;;;5052431;28;20418;-76
2021/10/19 12:36:04;;;;;;;14.73;9.27;;;14.50;1.00;;;;;;5050174;28;20408;-76
2021/10/19 12:38:36;;;;;;;17.17;9.80;;;14.60;1.00;;;;;;5043647;28;20910;-75
2021/10/19 12:41:07;;;;;;;19.13;9.97;;;;;;;;;;5050989;28;20416;-76
2021/10/19 12:43:33;;;;;;;16.33;9.47;;;;;;;;;;5055216;28;20509;-76
2021/10/19 12:45:59;;;;;;;15.93;9.50;;;14.60;1.00;;;;;;5036417;28;20433;-77
2021/10/19 12:48:33;;;;;;;20.97;10.30;;;14.50;1.00;;;;;;5040487;28;20472;-76
2021/10/19 12:51:09;;;;;;;14.73;8.67;;;14.70;1.00;;;;;;5048169;28;20430;-76
2021/10/19 12:53:36;;;;;;;17.83;10.17;;;;;;;;;;5051471;28;20648;-75
2021/10/19 12:56:07;;;;;;;18.80;10.80;;;14.80;1.00;;;;;;5055469;28;20388;-75
2021/10/19 12:58:34;;;;;;;16.33;8.97;;;14.90;1.00;;;;;;5045941;28;20944;-76
2021/10/19 13:01:08;;;;;;;20.23;10.00;;;15.00;1.00;;;;;;5053237;28;20422;-76
2021/10/19 13:03:37;;;;;;;20.13;9.83;;;15.00;1.00;;;;;;5048074;28;20937;-76
2021/10/19 13:06:16;;;;;;;16.40;9.50;;;;;;;;;;5053518;28;20774;-76
2021/10/19 13:08:42;;;;;;;14.53;9.37;;;;;;;;;;5057291;28;20425;-78
2021/10/19 13:11:08;;;;;;;18.57;10.80;;;15.40;1.00;;;;;;5055220;28;20501;-76